createdAt,value
2023-05-19T00:04:02.440Z,12.93
2023-05-19T00:09:07.111Z,12.62
2023-05-19T00:14:11.821Z,12.90
2023-05-19T00:19:17.015Z,12.91
2023-05-19T00:24:19.974Z,12.95
2023-05-19T00:29:22.738Z,12.92
2023-05-19T00:34:26.921Z,13.00
2023-05-19T00:39:29.831Z,12.73
2023-05-19T00:44:32.823Z,12.82
2023-05-19T00:49:37.153Z,12.75
2023-05-19T00:54:40.114Z,12.54
2023-05-19T00:59:42.919Z,12.42
2023-05-19T01:04:47.267Z,12.73
2023-05-19T01:09:50.793Z,12.56
2023-05-19T01:14:53.919Z,12.51
2023-05-19T01:20:05.056Z,12.50
2023-05-19T01:25:43.706Z,12.58
2023-05-19T01:30:53.642Z,12.58
2023-05-19T01:35:57.026Z,12.41
2023-05-19T01:41:01.324Z,12.53
2023-05-19T01:46:06.652Z,12.53
2023-05-19T01:51:09.636Z,12.61
2023-05-19T01:56:16.288Z,12.31
2023-05-19T02:01:30.741Z,12.61
2023-05-19T02:06:38.656Z,12.51
2023-05-19T02:11:53.216Z,12.14
2023-05-19T02:16:59.252Z,12.03
2023-05-19T02:22:02.233Z,12.47
2023-05-19T02:27:05.589Z,12.38
2023-05-19T02:32:10.105Z,12.34
2023-05-19T02:37:13.701Z,12.52
2023-05-19T02:42:18.101Z,12.43
2023-05-19T02:47:22.405Z,12.13
2023-05-19T02:52:25.225Z,12.08
2023-05-19T02:57:28.096Z,12.01
2023-05-19T03:02:34.239Z,12.27
2023-05-19T03:07:40.157Z,12.04
2023-05-19T03:12:42.989Z,12.29
2023-05-19T03:17:47.840Z,12.58
2023-05-19T03:22:50.693Z,12.51
2023-05-19T03:27:53.805Z,12.58
2023-05-19T03:32:58.702Z,12.31
2023-05-19T03:38:01.788Z,12.11
2023-05-19T03:43:05.465Z,12.51
2023-05-19T03:48:15.906Z,12.71
2023-05-19T03:53:48.625Z,12.92
2023-05-19T03:58:51.507Z,12.53
2023-05-19T04:03:55.898Z,13.03
2023-05-19T04:08:59.379Z,13.27
2023-05-19T04:14:02.265Z,13.13
2023-05-19T04:19:06.750Z,13.10
2023-05-19T04:24:11.212Z,13.48
2023-05-19T04:29:17.955Z,13.17
2023-05-19T04:34:22.371Z,13.42
2023-05-19T04:39:25.707Z,13.27
2023-05-19T04:44:30.103Z,13.63
2023-05-19T04:49:38.994Z,13.73
2023-05-19T04:54:41.856Z,13.83
2023-05-19T04:59:48.003Z,13.92
2023-05-19T05:04:54.547Z,13.82
2023-05-19T05:09:57.714Z,14.33
2023-05-19T05:15:01.396Z,13.84
2023-05-19T05:20:08.310Z,14.40
2023-05-19T05:25:13.004Z,14.31
2023-05-19T05:30:16.072Z,14.03
2023-05-19T05:35:23.541Z,14.26
2023-05-19T05:40:26.684Z,14.07
2023-05-19T05:45:30.545Z,14.35
2023-05-19T05:50:36.719Z,14.03
2023-05-19T05:55:41.438Z,14.18
2023-05-19T06:00:45.340Z,14.42
2023-05-19T06:05:49.873Z,15.40
2023-05-19T06:10:52.936Z,15.58
2023-05-19T06:15:55.934Z,15.84
2023-05-19T06:21:04.971Z,15.89
2023-05-19T06:26:08.329Z,16.48
2023-05-19T06:31:11.424Z,17.00
2023-05-19T06:36:27.033Z,16.97
2023-05-19T06:41:32.806Z,17.73
2023-05-19T06:46:36.256Z,18.45
2023-05-19T06:51:41.962Z,18.75
2023-05-19T06:56:45.207Z,18.54
2023-05-19T07:01:48.089Z,17.69
2023-05-19T07:06:52.394Z,20.33
2023-05-19T07:11:56.257Z,21.47
2023-05-19T07:16:59.300Z,21.66
2023-05-19T07:22:03.564Z,23.47
2023-05-19T07:27:06.804Z,26.29
2023-05-19T07:32:09.744Z,29.78
2023-05-19T07:37:13.899Z,31.37
2023-05-19T07:42:19.320Z,29.85
2023-05-19T07:47:24.656Z,30.04
2023-05-19T07:52:28.956Z,28.91
2023-05-19T07:57:32.960Z,29.72
2023-05-19T08:02:35.913Z,29.27
2023-05-19T08:07:40.915Z,26.42
2023-05-19T08:12:44.023Z,24.13
2023-05-19T08:17:46.900Z,24.77
2023-05-19T08:22:51.111Z,24.81
2023-05-19T08:27:53.889Z,23.21
2023-05-19T08:32:57.333Z,21.92
2023-05-19T08:38:01.517Z,20.71
2023-05-19T08:43:04.613Z,20.90
2023-05-19T08:48:08.790Z,21.53
2023-05-19T08:53:31.906Z,20.57
2023-05-19T08:58:36.035Z,19.81
2023-05-19T09:03:39.567Z,20.17
2023-05-19T09:08:44.745Z,19.99
2023-05-19T09:13:48.716Z,19.19
2023-05-19T09:18:56.156Z,19.46
2023-05-19T09:24:06.123Z,20.22
2023-05-19T09:29:13.045Z,20.22
2023-05-19T09:34:15.948Z,19.23
2023-05-19T09:39:22.052Z,20.56
2023-05-19T09:44:28.972Z,19.88
2023-05-19T09:49:32.797Z,20.20
2023-05-19T09:54:37.344Z,19.72
2023-05-19T09:59:41.599Z,19.76
2023-05-19T10:04:45.849Z,19.94
2023-05-19T10:09:51.211Z,19.90
2023-05-19T10:14:55.900Z,19.86
2023-05-19T10:20:00.502Z,20.01
2023-05-19T10:25:05.086Z,20.64
2023-05-19T10:30:12.768Z,20.58
2023-05-19T10:35:49.075Z,20.68
2023-05-19T10:41:03.726Z,19.69
2023-05-19T10:46:07.214Z,19.62
2023-05-19T10:51:12.236Z,20.23
2023-05-19T10:56:31.027Z,21.11
2023-05-19T11:01:35.047Z,20.23
2023-05-19T11:06:38.673Z,20.54
2023-05-19T11:11:48.533Z,20.17
2023-05-19T11:16:52.810Z,20.43
2023-05-19T11:21:57.395Z,20.52
2023-05-19T11:27:18.249Z,19.72
2023-05-19T11:32:22.635Z,19.71
2023-05-19T11:37:25.758Z,20.71
2023-05-19T11:42:29.957Z,21.01
2023-05-19T11:47:45.987Z,20.92
2023-05-19T11:52:57.685Z,21.24
2023-05-19T11:58:05.143Z,22.29
2023-05-19T12:03:08.974Z,22.19
2023-05-19T12:08:12.442Z,22.59
2023-05-19T12:13:16.691Z,22.49
2023-05-19T12:18:20.635Z,22.54
2023-05-19T12:23:24.674Z,23.49
2023-05-19T12:28:31.109Z,23.53
2023-05-19T12:33:35.762Z,22.10
2023-05-19T12:38:39.759Z,21.71
2023-05-19T12:43:44.025Z,21.60
2023-05-19T12:48:47.846Z,21.32
2023-05-19T12:53:51.437Z,22.30
2023-05-19T12:58:56.390Z,21.92
2023-05-19T13:04:02.761Z,21.11
2023-05-19T13:09:07.719Z,20.75
2023-05-19T13:14:13.634Z,20.88
2023-05-19T13:24:26.280Z,21.42
2023-05-19T13:29:30.536Z,21.81
2023-05-19T13:34:33.640Z,21.93
2023-05-19T13:39:36.860Z,21.45
2023-05-19T13:44:41.039Z,21.65
2023-05-19T13:49:43.875Z,21.14
2023-05-19T13:54:46.663Z,21.42
2023-05-19T14:00:01.707Z,21.28
2023-05-19T14:05:14.775Z,21.26
2023-05-19T14:10:17.690Z,21.59
2023-05-19T14:15:22.048Z,21.22
2023-05-19T14:20:25.899Z,21.61
2023-05-19T14:25:29.582Z,20.86
2023-05-19T14:30:33.951Z,21.69
2023-05-19T14:35:37.026Z,21.20
2023-05-19T14:40:41.311Z,20.88
2023-05-19T14:45:45.700Z,21.61
2023-05-19T14:50:49.109Z,21.17
2023-05-19T14:55:51.892Z,21.09
2023-05-19T15:00:58.034Z,20.97
2023-05-19T15:06:01.242Z,21.10
2023-05-19T15:11:04.149Z,20.87
2023-05-19T15:16:17.506Z,21.38
2023-05-19T15:21:21.035Z,20.91
2023-05-19T15:26:23.916Z,20.52
2023-05-19T15:31:28.465Z,20.16
2023-05-19T15:36:31.540Z,20.22
2023-05-19T15:41:34.351Z,20.52
2023-05-19T15:46:38.937Z,20.70
2023-05-19T15:51:41.774Z,20.71
2023-05-19T15:56:44.610Z,20.61
2023-05-19T16:01:52.746Z,20.96
2023-05-19T16:06:56.161Z,21.13
2023-05-19T16:11:59.055Z,20.29
2023-05-19T16:17:03.362Z,20.37
2023-05-19T16:22:06.686Z,19.93
2023-05-19T16:27:09.590Z,20.06
2023-05-19T16:32:13.885Z,20.10
2023-05-19T16:37:16.777Z,20.21
2023-05-19T16:42:19.655Z,20.45
2023-05-19T16:47:23.834Z,20.60
2023-05-19T16:52:29.692Z,19.75
2023-05-19T16:57:32.737Z,20.21
2023-05-19T17:02:37.077Z,19.94
2023-05-19T17:07:40.094Z,19.99
2023-05-19T17:12:42.912Z,19.49
2023-05-19T17:17:47.072Z,19.52
2023-05-19T17:22:50.063Z,19.55
2023-05-19T17:27:52.939Z,19.39
2023-05-19T17:32:58.943Z,19.64
2023-05-19T17:38:01.853Z,19.14
2023-05-19T17:43:05.942Z,19.18
2023-05-19T17:48:10.257Z,19.17
2023-05-19T17:53:13.660Z,19.04
2023-05-19T17:58:16.985Z,19.22
2023-05-19T18:03:21.978Z,18.94
2023-05-19T18:08:25.945Z,18.91
2023-05-19T18:13:28.841Z,18.93
2023-05-19T18:18:34.452Z,18.93
2023-05-19T18:23:37.281Z,18.50
2023-05-19T18:28:40.569Z,18.55
2023-05-19T18:33:45.317Z,18.45
2023-05-19T18:38:48.282Z,18.65
2023-05-19T18:43:51.203Z,18.41
2023-05-19T18:48:55.451Z,17.90
2023-05-19T18:53:58.247Z,18.14
2023-05-19T18:59:01.211Z,18.05
2023-05-19T19:04:05.907Z,17.95
2023-05-19T19:09:08.940Z,18.13
2023-05-19T19:14:11.813Z,17.46
2023-05-19T19:19:16.080Z,17.54
2023-05-19T19:24:22.386Z,17.57
2023-05-19T19:29:25.286Z,17.69
2023-05-19T19:34:29.569Z,17.69
2023-05-19T19:39:32.492Z,17.64
2023-05-19T19:44:35.300Z,17.57
2023-05-19T19:49:42.147Z,17.39
2023-05-19T19:54:44.997Z,17.20
2023-05-19T19:59:47.848Z,17.30
2023-05-19T20:04:52.019Z,17.11
2023-05-19T20:09:55.912Z,17.02
2023-05-19T20:14:58.813Z,17.16
2023-05-19T20:20:07.970Z,17.29
2023-05-19T20:25:10.950Z,16.93
2023-05-19T20:30:13.894Z,17.14
2023-05-19T20:35:18.591Z,16.94
2023-05-19T20:40:21.579Z,16.78
2023-05-19T20:45:24.353Z,16.90
2023-05-19T20:50:28.567Z,16.81
2023-05-19T20:55:31.581Z,16.60
2023-05-19T21:00:34.679Z,16.55
2023-05-19T21:05:39.133Z,16.52
2023-05-19T21:10:42.232Z,16.29
2023-05-19T21:15:45.153Z,16.44
2023-05-19T21:20:49.333Z,16.42
2023-05-19T21:25:52.154Z,15.94
2023-05-19T21:30:55.028Z,16.24
2023-05-19T21:36:00.375Z,15.69
2023-05-19T21:41:03.185Z,15.95
2023-05-19T21:46:07.229Z,15.48
2023-05-19T21:51:11.387Z,15.91
2023-05-19T21:56:14.143Z,15.93
2023-05-19T22:01:17.666Z,15.69
2023-05-19T22:06:22.238Z,15.67
2023-05-19T22:11:25.102Z,15.45
2023-05-19T22:16:28.048Z,15.22
2023-05-19T22:21:32.502Z,15.53
2023-05-19T22:26:35.802Z,15.34
2023-05-19T22:31:38.735Z,15.21
2023-05-19T22:36:44.169Z,15.03
2023-05-19T22:41:46.969Z,15.23
2023-05-19T22:46:49.996Z,15.29
2023-05-19T22:51:54.144Z,14.99
2023-05-19T22:56:56.969Z,14.87
2023-05-19T23:01:59.762Z,14.87
2023-05-19T23:07:04.003Z,14.95
2023-05-19T23:12:07.621Z,14.81
2023-05-19T23:17:10.406Z,14.94
2023-05-19T23:22:14.579Z,14.81
2023-05-19T23:27:17.405Z,14.86
2023-05-19T23:32:20.180Z,14.65
2023-05-19T23:37:24.385Z,14.70
2023-05-19T23:42:27.164Z,14.54
2023-05-19T23:47:29.963Z,14.65
2023-05-19T23:52:34.174Z,14.48
2023-05-19T23:57:36.999Z,14.19
